createdAt,value
2022-07-31T00:01:42.108Z,99.90
2022-07-31T00:06:44.637Z,99.90
2022-07-31T00:11:47.214Z,99.90
2022-07-31T00:16:49.866Z,99.90
2022-07-31T00:21:52.343Z,99.90
2022-07-31T00:26:55.348Z,99.90
2022-07-31T00:31:58.233Z,99.90
2022-07-31T00:37:01.105Z,99.90
2022-07-31T00:42:04.077Z,99.90
2022-07-31T00:47:07.618Z,99.90
2022-07-31T00:52:10.195Z,99.90
2022-07-31T00:57:12.708Z,99.90
2022-07-31T01:02:15.210Z,99.90
2022-07-31T01:07:18.468Z,99.90
2022-07-31T01:12:33.802Z,99.90
2022-07-31T01:17:38.318Z,99.90
2022-07-31T01:22:59.843Z,99.90
2022-07-31T01:28:10.937Z,99.90
2022-07-31T01:33:21.227Z,99.90
2022-07-31T01:38:27.931Z,99.90
2022-07-31T01:43:38.042Z,99.90
2022-07-31T01:48:42.593Z,99.90
2022-07-31T01:53:47.853Z,99.90
2022-07-31T01:58:51.730Z,99.90
2022-07-31T02:04:10.453Z,99.90
2022-07-31T02:09:14.469Z,99.90
2022-07-31T02:14:19.319Z,99.90
2022-07-31T02:19:23.349Z,99.90
2022-07-31T02:24:26.036Z,99.90
2022-07-31T02:29:32.356Z,99.90
2022-07-31T02:34:36.290Z,99.90
2022-07-31T02:39:40.199Z,99.90
2022-07-31T02:44:42.916Z,99.90
2022-07-31T02:49:45.708Z,99.90
2022-07-31T02:54:50.258Z,99.90
2022-07-31T02:59:52.825Z,99.90
2022-07-31T03:04:56.834Z,99.90
2022-07-31T03:10:00.923Z,99.90
2022-07-31T03:15:32.117Z,99.90
2022-07-31T03:20:35.149Z,99.90
2022-07-31T03:25:38.230Z,99.90
2022-07-31T03:30:41.292Z,99.90
2022-07-31T03:35:44.728Z,99.90
2022-07-31T03:40:48.211Z,99.90
2022-07-31T03:45:52.709Z,99.90
2022-07-31T03:50:56.148Z,99.90
2022-07-31T03:56:00.385Z,99.90
2022-07-31T04:01:03.161Z,99.90
2022-07-31T04:06:07.948Z,99.90
2022-07-31T04:11:10.654Z,99.90
2022-07-31T04:16:13.316Z,99.90
2022-07-31T04:21:15.798Z,99.90
2022-07-31T04:26:26.004Z,99.90
2022-07-31T04:31:37.806Z,99.90
2022-07-31T04:36:43.413Z,99.90
2022-07-31T04:41:46.013Z,99.90
2022-07-31T04:46:48.896Z,99.90
2022-07-31T04:51:51.543Z,99.90
2022-07-31T04:56:54.215Z,99.90
2022-07-31T05:01:56.899Z,99.90
2022-07-31T05:07:00.087Z,99.90
2022-07-31T05:12:03.073Z,99.90
2022-07-31T05:17:06.708Z,99.90
2022-07-31T05:22:27.132Z,99.90
2022-07-31T05:27:58.450Z,99.90
2022-07-31T05:33:01.867Z,99.90
2022-07-31T05:38:04.412Z,99.90
2022-07-31T05:43:24.885Z,99.90
2022-07-31T05:48:41.449Z,99.90
2022-07-31T05:53:45.828Z,99.90
2022-07-31T05:59:14.662Z,99.90
2022-07-31T06:04:17.787Z,99.90
2022-07-31T06:09:22.351Z,99.90
2022-07-31T06:14:26.488Z,99.90
2022-07-31T06:19:49.250Z,99.90
2022-07-31T06:24:52.006Z,99.90
2022-07-31T06:29:56.431Z,99.90
2022-07-31T06:34:59.210Z,99.90
2022-07-31T06:40:03.700Z,99.90
2022-07-31T06:45:52.103Z,99.90
2022-07-31T06:51:30.495Z,99.90
2022-07-31T06:56:35.179Z,99.90
2022-07-31T07:01:37.864Z,99.90
2022-07-31T07:06:40.666Z,99.90
2022-07-31T07:11:43.347Z,99.90
2022-07-31T07:16:46.061Z,99.90
2022-07-31T07:21:48.729Z,99.90
2022-07-31T07:26:51.989Z,99.90
2022-07-31T07:31:54.861Z,99.90
2022-07-31T07:36:58.053Z,99.90
2022-07-31T07:42:04.521Z,99.90
2022-07-31T07:47:07.314Z,99.90
2022-07-31T07:52:10.356Z,99.90
2022-07-31T07:57:17.206Z,99.90
2022-07-31T08:02:38.789Z,99.90
2022-07-31T08:07:43.240Z,99.90
2022-07-31T08:13:15.451Z,99.90
2022-07-31T08:18:38.243Z,99.90
2022-07-31T08:23:41.135Z,99.90
2022-07-31T08:28:50.464Z,99.90
2022-07-31T08:33:57.131Z,99.90
2022-07-31T08:39:00.275Z,99.90
2022-07-31T08:44:26.451Z,99.90
2022-07-31T08:49:37.729Z,99.90
2022-07-31T08:54:46.589Z,99.90
2022-07-31T08:59:52.744Z,99.90
2022-07-31T09:04:56.741Z,99.90
2022-07-31T09:09:59.284Z,99.90
2022-07-31T09:15:01.907Z,99.90
2022-07-31T09:20:05.835Z,99.90
2022-07-31T09:25:16.055Z,99.90
2022-07-31T09:30:18.900Z,99.90
2022-07-31T09:35:47.282Z,99.90
2022-07-31T09:40:56.832Z,99.90
2022-07-31T09:46:19.050Z,99.90
2022-07-31T09:51:22.922Z,99.90
2022-07-31T09:56:33.396Z,99.90
2022-07-31T10:01:38.161Z,99.60
2022-07-31T10:06:42.185Z,96.70
2022-07-31T10:11:47.363Z,97.30
2022-07-31T10:16:59.170Z,95.00
2022-07-31T10:22:21.660Z,92.10
2022-07-31T10:27:26.631Z,90.80
2022-07-31T10:32:35.831Z,83.30
2022-07-31T10:38:06.443Z,84.40
2022-07-31T10:43:54.876Z,80.40
2022-07-31T10:49:08.660Z,80.40
2022-07-31T10:54:43.273Z,74.30
2022-07-31T11:00:29.479Z,71.20
2022-07-31T11:06:02.021Z,66.70
2022-07-31T11:11:36.861Z,63.60
2022-07-31T11:17:04.550Z,64.40
2022-07-31T11:22:31.713Z,62.10
2022-07-31T11:27:35.426Z,60.30
2022-07-31T11:32:37.959Z,57.40
2022-07-31T11:37:56.388Z,55.40
2022-07-31T11:48:27.761Z,57.30
2022-07-31T11:53:31.067Z,56.40
2022-07-31T11:58:34.061Z,54.10
2022-07-31T12:03:38.640Z,51.20
2022-07-31T12:08:41.458Z,50.00
2022-07-31T12:13:48.899Z,48.30
2022-07-31T12:19:00.770Z,47.20
2022-07-31T12:24:10.553Z,43.60
2022-07-31T12:29:13.384Z,44.00
2022-07-31T12:34:30.158Z,41.80
2022-07-31T12:39:59.371Z,40.30
2022-07-31T12:45:19.435Z,39.50
2022-07-31T12:50:27.291Z,36.70
2022-07-31T12:55:33.017Z,37.80
2022-07-31T13:00:39.797Z,36.30
2022-07-31T13:05:42.916Z,34.50
2022-07-31T13:10:46.294Z,34.40
2022-07-31T13:15:48.930Z,33.90
2022-07-31T13:20:51.419Z,35.20
2022-07-31T13:25:54.066Z,35.40
2022-07-31T13:30:56.772Z,36.60
2022-07-31T13:35:59.302Z,32.60
2022-07-31T13:41:20.791Z,32.00
2022-07-31T13:46:23.853Z,31.30
2022-07-31T13:51:28.993Z,30.00
2022-07-31T13:56:38.894Z,28.60
2022-07-31T14:02:03.359Z,28.70
2022-07-31T14:07:08.300Z,29.70
2022-07-31T14:12:11.550Z,28.20
2022-07-31T14:17:14.351Z,27.60
2022-07-31T14:22:16.884Z,27.10
2022-07-31T14:27:20.131Z,26.70
2022-07-31T14:32:22.759Z,25.80
2022-07-31T14:37:25.631Z,24.50
2022-07-31T14:42:28.207Z,24.90
2022-07-31T14:47:34.364Z,24.50
2022-07-31T14:52:37.477Z,25.60
2022-07-31T14:57:40.053Z,25.30
2022-07-31T15:02:44.178Z,24.50
2022-07-31T15:07:48.281Z,25.00
2022-07-31T15:12:51.018Z,22.90
2022-07-31T15:17:53.519Z,23.30
2022-07-31T15:22:56.482Z,23.80
2022-07-31T15:27:59.048Z,23.80
2022-07-31T15:33:01.592Z,23.90
2022-07-31T15:38:04.153Z,23.10
2022-07-31T15:43:06.757Z,23.90
2022-07-31T15:48:10.100Z,23.40
2022-07-31T15:53:14.369Z,22.10
2022-07-31T15:58:17.046Z,22.70
2022-07-31T16:03:19.589Z,23.50
2022-07-31T16:08:31.202Z,22.40
2022-07-31T16:13:37.353Z,23.00
2022-07-31T16:18:39.913Z,24.10
2022-07-31T16:23:42.578Z,24.30
2022-07-31T16:28:45.223Z,24.70
2022-07-31T16:33:50.721Z,23.70
2022-07-31T16:39:18.518Z,25.10
2022-07-31T16:44:17.262Z,26.20
2022-07-31T16:49:35.378Z,26.00
2022-07-31T16:54:39.623Z,26.50
2022-07-31T16:59:57.698Z,26.90
2022-07-31T17:05:00.756Z,26.60
2022-07-31T17:10:03.511Z,27.00
2022-07-31T17:15:06.428Z,27.30
2022-07-31T17:20:09.853Z,27.80
2022-07-31T17:25:12.456Z,28.20
2022-07-31T17:30:15.420Z,28.80
2022-07-31T17:35:19.416Z,32.50
2022-07-31T17:40:42.478Z,38.10
2022-07-31T17:45:59.544Z,41.30
2022-07-31T17:51:07.295Z,43.10
2022-07-31T17:56:12.892Z,44.30
2022-07-31T18:01:15.789Z,45.70
2022-07-31T18:06:18.365Z,47.70
2022-07-31T18:11:21.645Z,49.00
2022-07-31T18:16:24.820Z,50.20
2022-07-31T18:21:27.519Z,51.80
2022-07-31T18:26:30.938Z,53.00
2022-07-31T18:31:34.772Z,53.90
2022-07-31T18:36:39.595Z,55.90
2022-07-31T18:41:46.812Z,57.40
2022-07-31T18:46:51.359Z,59.30
2022-07-31T18:51:54.004Z,58.10
2022-07-31T18:56:56.562Z,60.30
2022-07-31T19:01:59.525Z,62.90
2022-07-31T19:07:02.111Z,66.90
2022-07-31T19:12:08.224Z,60.00
2022-07-31T19:17:11.465Z,59.30
2022-07-31T19:22:18.099Z,59.30
2022-07-31T19:27:21.198Z,60.80
2022-07-31T19:32:24.070Z,62.20
2022-07-31T19:37:26.646Z,63.60
2022-07-31T19:42:29.690Z,64.60
2022-07-31T19:47:32.375Z,66.70
2022-07-31T19:52:34.883Z,67.50
2022-07-31T19:57:38.384Z,69.40
2022-07-31T20:02:41.667Z,70.10
2022-07-31T20:07:44.226Z,70.30
2022-07-31T20:12:46.883Z,70.20
2022-07-31T20:17:49.528Z,71.90
2022-07-31T20:22:52.038Z,72.50
2022-07-31T20:27:54.567Z,73.90
2022-07-31T20:32:57.263Z,76.00
2022-07-31T20:38:00.225Z,76.30
2022-07-31T20:43:03.984Z,78.70
2022-07-31T20:48:06.856Z,79.80
2022-07-31T20:53:09.404Z,80.70
2022-07-31T20:58:12.219Z,82.60
2022-07-31T21:03:15.801Z,83.50
2022-07-31T21:08:18.628Z,85.60
2022-07-31T21:13:21.218Z,87.60
2022-07-31T21:18:23.978Z,89.60
2022-07-31T21:23:27.613Z,90.50
2022-07-31T21:28:30.467Z,90.80
2022-07-31T21:33:33.587Z,91.20
2022-07-31T21:38:36.848Z,92.50
2022-07-31T21:43:58.736Z,92.90
2022-07-31T21:49:02.439Z,92.80
2022-07-31T21:54:06.099Z,93.60
2022-07-31T21:59:09.063Z,94.00
2022-07-31T22:04:11.618Z,94.90
2022-07-31T22:09:14.160Z,95.70
2022-07-31T22:14:19.868Z,96.30
2022-07-31T22:19:22.675Z,96.80
2022-07-31T22:24:25.416Z,97.30
2022-07-31T22:29:28.775Z,97.80
2022-07-31T22:34:37.645Z,98.20
2022-07-31T22:39:41.049Z,99.00
2022-07-31T22:44:43.865Z,99.90
2022-07-31T22:49:46.541Z,99.90
2022-07-31T22:54:49.113Z,99.90
2022-07-31T22:59:52.038Z,99.90
2022-07-31T23:04:55.080Z,99.90
2022-07-31T23:09:57.599Z,99.90
2022-07-31T23:15:00.158Z,99.90
2022-07-31T23:20:02.852Z,99.90
2022-07-31T23:25:06.765Z,99.90
2022-07-31T23:30:09.871Z,99.90
2022-07-31T23:35:12.379Z,99.90
2022-07-31T23:40:14.954Z,99.90
2022-07-31T23:45:17.491Z,99.90
2022-07-31T23:50:20.042Z,99.90
2022-07-31T23:55:22.599Z,99.90
